EDT,Max TemperatureF,Mean TemperatureF,Min TemperatureF,Max Dew PointF,MeanDew PointF,Min DewpointF,Max Humidity, Mean Humidity, Min Humidity, Max Sea Level PressureIn, Mean Sea Level PressureIn, Min Sea Level PressureIn, Max VisibilityMiles, Mean VisibilityMiles, Min VisibilityMiles, Max Wind SpeedMPH, Mean Wind SpeedMPH, Max Gust SpeedMPH,PrecipitationIn, CloudCover, Events, WindDirDegrees
2013-8-1,79,68,56,64,58,52,100,73,39,29.91,29.89,29.87,10,7,0,15,4,22,0.00,3,Fog,279
2013-8-2,77,64,51,64,59,51,99,82,56,29.92,29.86,29.80,10,10,2,16,4,23,0.11,3,Rain,241
2013-8-3,77,64,51,60,55,51,100,76,44,30.08,30.00,29.91,10,9,1,14,3,21,0.00,2,,312
2013-8-4,73,61,49,56,53,48,99,76,44,30.19,30.13,30.08,10,10,7,10,2,,0.00,2,,338
2013-8-5,72,62,51,58,55,51,97,76,51,30.11,30.05,29.95,10,10,10,8,2,,0.00,4,Rain,195
2013-8-6,78,71,64,67,62,54,99,78,66,29.95,29.90,29.85,10,9,5,12,5,,0.03,6,,185
2013-8-7,83,73,63,68,65,61,98,79,51,29.95,29.83,29.77,10,9,2,16,5,20,0.48,3,Rain,241
2013-8-8,75,64,53,62,55,49,100,73,40,30.05,30.01,29.95,10,9,2,10,2,,0.00,0,,39
2013-8-9,80,64,49,61,56,49,99,72,41,30.03,29.97,29.92,10,10,7,16,3,25,0.00,1,,253
2013-8-10,76,62,48,59,53,47,100,74,43,30.16,30.11,30.03,10,10,10,9,1,,0.00,1,,304
2013-8-11,77,64,51,61,56,51,99,76,44,30.13,30.10,30.04,10,10,5,9,1,,0.00,3,Rain,260
2013-8-12,79,70,62,66,62,58,96,76,53,30.06,29.95,29.83,10,10,7,12,2,,0.00,6,,226
2013-8-13,67,59,50,57,47,43,85,64,42,30.09,29.99,29.89,10,10,10,15,8,21,0.00,5,,331
2013-8-14,72,58,44,53,48,44,99,72,39,30.17,30.13,30.09,10,10,10,10,3,,0.00,2,,300
2013-8-15,77,59,41,56,50,41,100,75,35,30.16,30.11,30.06,10,10,1,12,2,20,0.00,2,,243
2013-8-16,80,62,45,55,50,42,100,69,26,30.21,30.16,30.11,10,10,7,8,1,,0.00,0,,142
2013-8-17,82,66,49,58,53,49,99,70,32,30.28,30.23,30.19,10,10,1,7,1,,0.00,1,,122
2013-8-18,81,64,48,58,54,49,99,71,35,30.24,30.18,30.11,10,9,1,8,1,,0.00,1,,220
2013-8-19,84,67,50,61,56,50,99,72,38,30.13,30.08,30.02,10,8,0,12,2,22,0.00,0,Fog,252
2013-8-20,87,70,54,66,60,54,100,74,39,30.12,30.07,30.05,10,8,0,12,2,16,0.00,1,Fog,247
2013-8-21,89,74,59,67,63,59,99,69,39,30.10,30.04,29.95,10,8,0,15,4,22,0.00,1,Fog,221
2013-8-22,81,72,62,69,66,61,98,79,60,30.09,30.02,29.94,10,10,4,14,4,22,0.12,2,Rain,291
2013-8-23,78,62,47,60,55,47,99,75,40,30.21,30.16,30.10,10,9,0,12,2,17,0.00,0,Fog,61
2013-8-24,82,65,48,60,54,48,100,69,37,30.33,30.27,30.21,10,10,1,10,2,,0.00,0,,170
2013-8-25,89,74,60,66,62,57,93,65,44,30.28,30.19,30.08,10,10,7,18,7,25,0.00,0,,210
2013-8-26,87,79,70,71,67,65,96,72,55,30.11,30.03,29.96,10,10,7,12,7,17,0.00,1,Rain,240
2013-8-27,77,73,69,74,72,69,100,94,86,29.98,29.91,29.84,10,8,2,17,3,30,0.22,5,Rain,192
2013-8-28,82,74,65,73,70,65,100,86,63,30.04,29.93,29.81,10,7,1,10,4,,0.00,5,,44
2013-8-29,87,74,61,71,66,61,100,81,49,30.11,30.05,30.00,10,6,0,6,1,,0.01,3,Fog,197
2013-8-30,89,76,64,76,69,64,100,83,53,30.00,29.86,29.72,10,8,0,18,4,25,0.30,3,Fog-Rain,247
2013-8-31,77,69,61,68,65,61,99,84,61,29.88,29.84,29.80,10,9,2,7,2,,0.00,6,,25